Codsall, United Kingdom
Current Conditions -  °F | °C
As of 5:20 AM on Wednesday 26 Nov 2014 (Local Time) from EGBB Reporting Station
Light Rain Light Rain  
Wind Chill: 39°   Ceiling: 400
Heat Index: 43°   Visibility: 1.2mi
Dew Point: 43°   Wind: 6mph
Humidity: 100%   Direction: 10°N
Pressure: 29.91"   Gusts: NA
Location:  52.63°N, 2.2°W
Report Text: EGBB 260520Z 01005KT 2000 -RADZ BR BKN004 BKN007 OVC019 06/06 Q1013 REDZ
Loading
Personal Weather Stations






























Interactive Weather Map New forecast layout! Learn more

10-Day Weather Forecast

Advertisements
Track Severe Weather on mobile